ムンバイ の空港の天気 - METARとTAF

チャットラパティー・シヴァージー国際空港 ( VABB / BOM ) - インド ムンバイ
飛行場実況気象(Metar)
観測時間12/04 07:00 IST (12/04 01:30 UTC)
風向・風速東南東 2m/s
視程2300m
天気現象煙霧
少しの雲 雲底高度 3050m
気温23℃
湿度69%
気圧1011hPa
METARVABB 040130Z 11004KT 2300 HZ FEW100 23/17 Q1011 NOSIG
過去の天気等 Google飛行場航空写真 Wunderground天気予報

過去48時間のMETAR

飛行場予報(TAF)
発表時間: 12/04 04:30 IST (12/03 23:00 UTC)
予報対象時間: 4日5時 IST ~ 4日14時 IST
風向・風速東北東 3m/s
視程2500m
天気現象煙霧
少しの雲 雲底高度 610m
全天の4割程度の雲 雲底高度 3050m
4日12時 IST ~ 4日14時 IST に徐々に
風向・風速西 5m/s
視程3000m
天気現象
TAF VABB 032300Z 0400/0409 07005KT 2500 HZ FEW020 SCT100
BECMG 0407/0409 28010KT 3000 FU